createdAt,value
2019-02-26T07:25:48.924Z,6.31
2019-02-26T07:26:58.851Z,6.02
2019-02-26T07:28:15.231Z,5.84
2019-02-26T07:29:42.827Z,5.74
2019-02-26T07:31:00.371Z,5.72
2019-02-26T07:32:22.682Z,5.72
2019-02-26T07:33:39.605Z,5.74
2019-02-26T07:34:54.587Z,5.76
2019-02-26T07:36:08.808Z,5.67
2019-02-26T07:37:20.615Z,5.65
2019-02-26T07:38:40.777Z,5.69
2019-02-26T07:39:56.583Z,5.67
2019-02-26T07:41:10.986Z,5.69
2019-02-26T07:42:23.565Z,5.65
2019-02-26T07:43:46.770Z,5.7
2019-02-26T07:45:00.011Z,5.62
2019-02-26T07:46:23.897Z,5.61
2019-02-26T07:47:38.636Z,5.67
2019-02-26T07:48:57.233Z,5.61
2019-02-26T07:50:17.543Z,5.65
2019-02-26T07:51:29.343Z,5.58
2019-02-26T07:52:47.131Z,5.76
2019-02-26T07:54:04.996Z,5.74
2019-02-26T07:55:19.833Z,5.7
2019-02-26T07:56:35.067Z,5.64
2019-02-26T07:57:50.661Z,5.7
2019-02-26T07:59:09.473Z,5.69
2019-02-26T08:00:22.101Z,5.7
2019-02-26T08:01:32.094Z,5.76
2019-02-26T08:02:45.058Z,5.79
2019-02-26T08:03:58.739Z,5.72
2019-02-26T08:05:08.681Z,5.79
2019-02-26T08:06:18.879Z,5.81
2019-02-26T08:07:33.174Z,5.72
2019-02-26T08:08:49.047Z,5.69
2019-02-26T08:09:58.972Z,5.67
2019-02-26T08:11:08.897Z,5.72
2019-02-26T08:12:20.176Z,5.73
2019-02-26T08:13:36.614Z,5.72
2019-02-26T08:14:52.022Z,5.69
2019-02-26T08:16:06.900Z,5.69
2019-02-26T08:17:16.825Z,5.76
2019-02-26T08:18:26.845Z,5.7
2019-02-26T08:19:39.759Z,5.74
2019-02-26T08:20:59.427Z,5.81
2019-02-26T08:22:12.433Z,5.83
2019-02-26T08:23:28.212Z,5.8
2019-02-26T08:24:38.136Z,5.79
2019-02-26T08:25:49.615Z,5.73
2019-02-26T08:27:11.520Z,5.65
2019-02-26T08:28:27.376Z,5.69
2019-02-26T08:29:40.766Z,5.77
2019-02-26T08:30:57.101Z,5.79
2019-02-26T08:32:07.137Z,5.81
2019-02-26T08:33:24.009Z,5.81
2019-02-26T08:34:33.935Z,5.79
2019-02-26T08:35:46.858Z,5.79
2019-02-26T08:37:01.234Z,5.91
2019-02-26T08:38:11.217Z,5.9
2019-02-26T08:39:21.609Z,5.97
2019-02-26T08:40:31.542Z,5.9
2019-02-26T08:41:41.681Z,5.92
2019-02-26T08:42:51.628Z,5.94
2019-02-26T08:44:03.545Z,6.05
2019-02-26T08:45:17.692Z,5.95
2019-02-26T08:46:31.221Z,5.95
2019-02-26T08:47:43.077Z,6.05
2019-02-26T08:48:55.401Z,6.07
2019-02-26T08:50:17.371Z,6.38
2019-02-26T08:51:27.313Z,6.39
2019-02-26T08:52:37.238Z,6.46
2019-02-26T08:53:54.140Z,6.57
2019-02-26T08:55:07.040Z,6.59
2019-02-26T08:56:28.157Z,6.7
2019-02-26T08:57:43.911Z,6.74
2019-02-26T08:58:58.368Z,6.78
2019-02-26T09:00:11.082Z,6.77
2019-02-26T09:01:21.065Z,6.78
2019-02-26T09:02:30.993Z,6.86
2019-02-26T09:03:45.708Z,6.78
2019-02-26T09:05:04.434Z,6.86
2019-02-26T09:06:21.007Z,6.95
2019-02-26T09:07:31.157Z,6.87
2019-02-26T09:08:45.601Z,6.83
2019-02-26T09:10:00.381Z,6.95
2019-02-26T09:11:16.641Z,6.75
2019-02-26T09:12:29.684Z,6.77
2019-02-26T09:13:45.685Z,6.83
2019-02-26T09:14:55.611Z,6.77
2019-02-26T09:16:10.000Z,6.74
2019-02-26T09:17:30.345Z,6.77
2019-02-26T09:18:45.633Z,6.82
2019-02-26T09:20:12.094Z,6.72
2019-02-26T09:21:25.333Z,6.83
2019-02-26T09:22:35.666Z,6.82
2019-02-26T09:23:59.956Z,6.8
2019-02-26T09:25:14.663Z,6.82
2019-02-26T09:26:27.932Z,6.8
2019-02-26T09:27:45.487Z,6.72
2019-02-26T09:28:59.581Z,6.85
2019-02-26T09:30:16.102Z,6.82
2019-02-26T09:31:26.942Z,6.78
2019-02-26T09:32:42.704Z,6.83
2019-02-26T09:33:54.495Z,6.93
2019-02-26T09:35:07.337Z,6.9
2019-02-26T09:36:23.592Z,6.92
2019-02-26T09:37:36.885Z,7.04
2019-02-26T09:38:53.686Z,7.04
2019-02-26T09:40:07.263Z,7.03
2019-02-26T09:41:23.647Z,7.05
2019-02-26T09:42:35.326Z,7.07
2019-02-26T09:43:50.079Z,7.08
2019-02-26T09:45:02.592Z,7.14
2019-02-26T09:46:21.172Z,7.07
2019-02-26T09:47:35.936Z,7.13
2019-02-26T09:48:49.882Z,6.62
2019-02-26T09:50:02.727Z,5.26
2019-02-26T09:51:16.810Z,4.64
2019-02-26T09:52:33.220Z,4.6
2019-02-26T09:53:43.148Z,4.42
2019-02-26T09:54:59.575Z,4.5
2019-02-26T09:56:09.503Z,4.58
2019-02-26T09:57:27.772Z,4.63
2019-02-26T09:58:42.802Z,4.5
2019-02-26T10:00:00.721Z,4.63
2019-02-26T10:01:18.082Z,4.79
2019-02-26T10:02:31.295Z,4.9
2019-02-26T10:03:43.964Z,4.78
2019-02-26T10:04:56.892Z,4.49
2019-02-26T10:06:06.846Z,4.74
2019-02-26T10:07:21.162Z,4.83
2019-02-26T10:08:35.462Z,4.84
2019-02-26T10:09:50.963Z,4.79
2019-02-26T10:11:05.113Z,4.86
2019-02-26T10:12:18.264Z,5.05
2019-02-26T10:13:31.996Z,5.08
2019-02-26T10:14:43.380Z,5.2
2019-02-26T10:15:56.726Z,5.2
2019-02-26T10:17:19.075Z,5.34
2019-02-26T10:18:33.403Z,5.43
2019-02-26T10:19:46.047Z,5.61
2019-02-26T10:20:57.493Z,5.7
2019-02-26T10:22:15.583Z,5.9
2019-02-26T10:23:32.957Z,6.09
2019-02-26T10:24:45.482Z,6.22
2019-02-26T10:26:05.173Z,6.52
2019-02-26T10:27:20.798Z,6.62
2019-02-26T10:28:35.124Z,6.71
2019-02-26T10:29:56.214Z,6.83
2019-02-26T10:31:14.042Z,7.01
2019-02-26T10:32:32.782Z,7.05
2019-02-26T10:33:48.859Z,7.13
2019-02-26T10:35:00.741Z,7.23
2019-02-26T10:36:20.907Z,7.21
2019-02-26T10:37:36.082Z,7.15
2019-02-26T10:38:50.741Z,7.26
2019-02-26T10:40:11.971Z,7.26
2019-02-26T10:41:26.049Z,7.41
2019-02-26T10:42:46.138Z,7.47
2019-02-26T10:43:56.202Z,7.64
2019-02-26T10:45:06.513Z,7.75
2019-02-26T10:46:16.480Z,7.69
2019-02-26T10:47:32.662Z,7.59
2019-02-26T10:48:50.944Z,7.53
2019-02-26T10:50:02.743Z,7.51
2019-02-26T10:51:12.723Z,7.7
2019-02-26T10:52:33.542Z,7.85
2019-02-26T10:53:43.465Z,7.95
2019-02-26T10:54:53.390Z,8.03
2019-02-26T10:56:03.417Z,8.18
2019-02-26T10:57:17.071Z,8.21
2019-02-26T10:58:27.073Z,8.26
2019-02-26T10:59:37.301Z,8.35
2019-02-26T11:00:58.142Z,8.49
2019-02-26T11:02:14.433Z,8.63
2019-02-26T11:03:29.778Z,8.69
2019-02-26T11:04:55.475Z,8.82
2019-02-26T11:06:10.578Z,9.09
2019-02-26T11:07:27.048Z,9.31
2019-02-26T11:08:43.228Z,9.52
2019-02-26T11:10:03.431Z,9.88
2019-02-26T11:11:19.098Z,10.12
2019-02-26T11:12:36.279Z,10.51
2019-02-26T11:13:54.276Z,10.49
2019-02-26T11:15:09.311Z,9.95
2019-02-26T11:16:33.000Z,9.56
2019-02-26T11:17:53.106Z,9.3
2019-02-26T11:19:12.164Z,9.31
2019-02-26T11:20:30.800Z,9.39
2019-02-26T11:21:42.098Z,9.44
2019-02-26T11:22:56.858Z,9.64
2019-02-26T11:24:13.629Z,10.15
2019-02-26T11:25:29.725Z,10.39
2019-02-26T11:26:46.153Z,10.64
2019-02-26T11:27:56.101Z,11
2019-02-26T11:29:12.224Z,11.4
2019-02-26T11:30:30.125Z,11.56
2019-02-26T11:31:45.317Z,11.91
2019-02-26T11:33:06.122Z,12.32
2019-02-26T11:34:20.941Z,12.61
2019-02-26T11:35:39.504Z,12.91
2019-02-26T11:37:03.294Z,13.31
2019-02-26T11:38:22.003Z,13.43
2019-02-26T11:39:32.227Z,13.23
2019-02-26T11:40:42.167Z,13.27
2019-02-26T11:41:59.282Z,12.81
2019-02-26T11:43:20.767Z,12.44
2019-02-26T11:44:36.114Z,12.4
2019-02-26T11:45:47.523Z,12.54
2019-02-26T11:46:59.156Z,12.83
2019-02-26T11:48:11.420Z,13.02
2019-02-26T11:49:26.064Z,13.23
2019-02-26T11:50:36.804Z,13.3
2019-02-26T11:51:49.787Z,13.16
2019-02-26T11:52:59.970Z,12.78
2019-02-26T11:54:17.112Z,12.84
2019-02-26T11:55:35.011Z,12.88
2019-02-26T11:56:52.580Z,12.8
2019-02-26T11:58:05.579Z,12.7
2019-02-26T11:59:24.371Z,12.76
2019-02-26T12:00:45.385Z,12.69
2019-02-26T12:02:04.352Z,12.84
2019-02-26T12:03:16.005Z,12.81
2019-02-26T12:06:38.271Z,12.62
2019-02-26T12:07:51.414Z,12.5
2019-02-26T12:09:14.139Z,12.35
2019-02-26T12:10:26.827Z,12.29
2019-02-26T12:11:43.786Z,12.12
2019-02-26T12:13:01.679Z,11.88
2019-02-26T12:14:18.847Z,11.77
2019-02-26T12:15:33.356Z,11.63
2019-02-26T12:16:49.058Z,11.59
2019-02-26T12:18:01.282Z,11.56
2019-02-26T12:19:13.514Z,11.4
2019-02-26T12:20:26.698Z,11.37
2019-02-26T12:21:39.491Z,11.23
2019-02-26T12:22:55.382Z,11.18
2019-02-26T12:24:12.524Z,11.19
2019-02-26T12:25:22.385Z,11.25
2019-02-26T12:26:34.896Z,11.22
2019-02-26T12:27:50.679Z,11.22
2019-02-26T12:29:06.289Z,11.13
2019-02-26T12:30:20.781Z,11.13
2019-02-26T12:31:39.107Z,11.07
2019-02-26T12:32:55.287Z,10.94
2019-02-26T12:34:05.261Z,10.94
2019-02-26T12:35:22.790Z,10.84
2019-02-26T12:36:39.483Z,10.65
2019-02-26T12:37:52.340Z,10.75
2019-02-26T12:39:31.192Z,10.36
2019-02-26T12:40:50.633Z,9.99
2019-02-26T12:42:03.174Z,9.8
2019-02-26T12:43:21.617Z,9.64
2019-02-26T12:44:39.521Z,9.64
2019-02-26T12:45:56.495Z,9.82
2019-02-26T12:47:17.872Z,9.74
2019-02-26T12:48:35.082Z,9.67
2019-02-26T12:49:56.166Z,9.66
2019-02-26T12:53:15.774Z,9.69
2019-02-26T12:54:37.657Z,9.56
2019-02-26T12:55:50.474Z,9.3
2019-02-26T12:57:09.203Z,8.92
2019-02-26T12:58:30.338Z,8.41
2019-02-26T12:59:40.272Z,8.26
2019-02-26T13:00:50.211Z,8.38
2019-02-26T13:02:00.141Z,8.42
2019-02-26T13:03:25.139Z,8.44
2019-02-26T13:04:37.590Z,8.35
2019-02-26T13:05:56.595Z,8.23
2019-02-26T13:07:10.486Z,8.21
2019-02-26T13:08:26.661Z,8.03
2019-02-26T13:09:40.920Z,7.95
2019-02-26T13:11:10.701Z,7.84
2019-02-26T13:12:35.058Z,7.84
2019-02-26T13:13:45.991Z,7.77
2019-02-26T13:15:11.964Z,7.85
2019-02-26T13:16:26.735Z,7.75
2019-02-26T13:17:37.338Z,7.66
2019-02-26T13:18:57.852Z,7.61
2019-02-26T13:27:10.748Z,8.01
2019-02-26T13:28:20.669Z,8.06
2019-02-26T13:29:42.386Z,8.01
2019-02-26T13:33:12.890Z,8.2
2019-02-26T13:34:32.298Z,8.08
2019-02-26T13:37:44.344Z,7.77
2019-02-26T13:38:54.594Z,7.75
2019-02-26T13:40:04.531Z,7.8
2019-02-26T13:44:15.591Z,8.05
2019-02-26T13:45:25.521Z,8.06
2019-02-26T13:46:35.444Z,8.11
2019-02-26T13:47:45.366Z,8.01
2019-02-26T13:48:55.292Z,8.09
2019-02-26T13:50:05.327Z,8.02
2019-02-26T13:51:15.261Z,8.03
2019-02-26T13:52:24.931Z,8.08
2019-02-26T13:53:34.856Z,8.17
2019-02-26T13:54:44.781Z,8.18
2019-02-26T13:55:55.047Z,8.09
2019-02-26T13:57:05.033Z,8.09
2019-02-26T13:58:17.265Z,8.08
2019-02-26T13:59:27.276Z,8.05
2019-02-26T14:00:37.237Z,8.06
2019-02-26T14:01:47.246Z,8.01
2019-02-26T14:02:57.459Z,7.93
2019-02-26T14:04:09.397Z,7.91
2019-02-26T14:05:20.025Z,7.96
2019-02-26T14:06:30.143Z,7.93
2019-02-26T14:07:40.229Z,7.93
2019-02-26T14:08:50.177Z,7.88
2019-02-26T14:10:00.283Z,7.91
2019-02-26T14:11:10.317Z,7.96
2019-02-26T14:12:20.287Z,8.01
2019-02-26T14:13:30.327Z,8.02
2019-02-26T14:14:40.262Z,7.98
2019-02-26T14:15:50.219Z,8.02
2019-02-26T14:17:00.174Z,8.06
2019-02-26T14:18:10.140Z,8.16
2019-02-26T14:19:20.186Z,8.06
2019-02-26T14:20:30.156Z,8.13
2019-02-26T14:21:40.174Z,8.09
2019-02-26T14:22:50.126Z,8.09
2019-02-26T14:24:00.084Z,8.03
2019-02-26T14:25:10.139Z,8.09
2019-02-26T14:26:19.837Z,8.05
2019-02-26T14:27:29.800Z,8.05
2019-02-26T14:28:39.742Z,7.95
2019-02-26T14:29:49.695Z,7.95
2019-02-26T14:30:59.766Z,8.01
2019-02-26T14:32:10.454Z,7.96
2019-02-26T14:33:20.917Z,7.91
2019-02-26T14:34:31.788Z,7.85
2019-02-26T14:35:42.053Z,7.83
2019-02-26T14:36:52.077Z,7.77
2019-02-26T14:38:03.426Z,7.74
2019-02-26T14:39:13.375Z,7.64
2019-02-26T14:40:23.338Z,7.64
2019-02-26T14:41:33.327Z,7.59
2019-02-26T14:42:43.460Z,7.55
2019-02-26T14:43:53.535Z,7.46
2019-02-26T14:45:03.584Z,7.41
2019-02-26T14:46:13.547Z,7.46
2019-02-26T14:47:23.541Z,7.39
2019-02-26T14:48:35.419Z,7.36
2019-02-26T14:49:45.421Z,7.36
2019-02-26T14:50:55.440Z,7.29
2019-02-26T14:52:05.442Z,7.23
2019-02-26T14:53:15.401Z,7.22
2019-02-26T14:54:25.347Z,7.29
2019-02-26T14:55:35.295Z,7.19
2019-02-26T14:56:45.251Z,7.19
2019-02-26T14:57:55.211Z,7
2019-02-26T14:59:05.165Z,6.62
2019-02-26T15:00:15.312Z,6.6
2019-02-26T15:01:25.602Z,6.6
2019-02-26T15:02:36.302Z,6.44
2019-02-26T15:03:46.854Z,6.41
2019-02-26T15:04:57.131Z,6.34
2019-02-26T15:06:07.150Z,6.38
2019-02-26T15:07:17.091Z,6.38
2019-02-26T15:08:27.032Z,6.31
2019-02-26T15:09:36.972Z,6.26
2019-02-26T15:10:46.921Z,6.15
2019-02-26T15:11:56.911Z,6.2
2019-02-26T15:13:06.853Z,6.13
2019-02-26T15:14:16.632Z,6.06
2019-02-26T15:15:26.667Z,6.09
2019-02-26T15:16:36.693Z,5.98
2019-02-26T15:17:46.777Z,5.9
2019-02-26T15:18:56.517Z,5.94
2019-02-26T15:20:06.468Z,5.84
2019-02-26T15:21:16.429Z,5.84
2019-02-26T15:22:26.367Z,5.79
2019-02-26T15:23:36.108Z,5.83
2019-02-26T15:24:46.047Z,5.74
2019-02-26T15:25:55.988Z,5.77
2019-02-26T15:27:06.352Z,5.67
2019-02-26T15:28:16.299Z,5.59
2019-02-26T15:29:26.339Z,5.51
2019-02-26T15:30:36.290Z,5.31
2019-02-26T15:31:46.409Z,5.23
2019-02-26T15:32:56.954Z,5.2
2019-02-26T15:34:15.961Z,5.05
2019-02-26T15:35:26.002Z,5.01
2019-02-26T15:36:35.954Z,4.9
2019-02-26T15:37:46.308Z,4.78
2019-02-26T15:38:56.252Z,4.71
2019-02-26T15:40:06.223Z,4.6
2019-02-26T15:41:16.219Z,4.5
2019-02-26T15:42:26.671Z,4.61
2019-02-26T15:43:36.655Z,4.53
2019-02-26T15:44:46.596Z,4.53
2019-02-26T15:45:57.707Z,4.56
2019-02-26T15:47:09.324Z,4.45
2019-02-26T15:48:19.270Z,4.42
2019-02-26T15:49:29.212Z,4.39
2019-02-26T15:50:44.875Z,4.43
2019-02-26T15:51:56.243Z,4.5
2019-02-26T15:53:07.323Z,4.45
2019-02-26T15:54:17.657Z,4.43
2019-02-26T15:55:30.099Z,4.39
2019-02-26T15:56:40.635Z,4.56
2019-02-26T15:57:52.290Z,4.42
2019-02-26T15:59:04.509Z,4.43
2019-02-26T16:00:16.397Z,4.48
2019-02-26T16:01:26.352Z,4.4
2019-02-26T16:02:36.896Z,4.4
2019-02-26T16:03:46.909Z,4.43
2019-02-26T16:04:56.973Z,4.36
2019-02-26T16:06:06.919Z,4.34
2019-02-26T16:07:16.865Z,4.3
2019-02-26T16:08:34.323Z,4.27
2019-02-26T16:09:46.533Z,4.32
2019-02-26T16:10:56.523Z,4.34
2019-02-26T16:12:06.470Z,4.31
2019-02-26T16:13:16.428Z,4.27
2019-02-26T16:14:26.363Z,4.31
2019-02-26T16:15:36.046Z,4.32
2019-02-26T16:16:46.037Z,4.3
2019-02-26T16:18:01.334Z,4.25
2019-02-26T16:19:12.041Z,4.25
2019-02-26T16:20:22.264Z,4.14
2019-02-26T16:21:32.204Z,4.09
2019-02-26T16:22:42.239Z,4.1
2019-02-26T16:23:52.170Z,4.06
2019-02-26T16:25:02.111Z,4.06
2019-02-26T16:26:15.282Z,4.02
2019-02-26T16:27:26.642Z,4.02
2019-02-26T16:28:45.152Z,4
2019-02-26T16:29:55.115Z,4.1
2019-02-26T16:31:07.011Z,4.03
2019-02-26T16:32:16.956Z,4.02
2019-02-26T16:33:27.812Z,4.02
2019-02-26T16:34:37.362Z,4.04
2019-02-26T16:35:47.307Z,4.12
2019-02-26T16:36:57.592Z,4.04
2019-02-26T16:38:14.071Z,3.88
2019-02-26T16:39:29.519Z,3.78
2019-02-26T16:40:40.068Z,3.81
2019-02-26T16:41:50.231Z,3.84
2019-02-26T16:43:00.173Z,3.76
2019-02-26T16:44:10.107Z,3.7
2019-02-26T16:45:20.150Z,3.67
2019-02-26T16:46:30.097Z,3.56
2019-02-26T16:47:40.056Z,3.67
2019-02-26T16:48:55.960Z,3.56
2019-02-26T16:50:17.354Z,3.63
2019-02-26T16:51:27.296Z,3.58
2019-02-26T16:52:37.233Z,3.64
2019-02-26T16:53:47.167Z,3.66
2019-02-26T16:54:57.111Z,3.59
2019-02-26T16:56:07.854Z,3.64
2019-02-26T16:57:17.899Z,3.59
2019-02-26T16:58:27.843Z,3.59
2019-02-26T16:59:43.058Z,3.61
2019-02-26T17:00:54.190Z,3.7
2019-02-26T17:02:04.951Z,3.55
2019-02-26T17:03:15.505Z,3.61
2019-02-26T17:04:26.165Z,3.63
2019-02-26T17:05:36.203Z,3.59
2019-02-26T17:06:46.148Z,3.67
2019-02-26T17:07:58.851Z,3.66
2019-02-26T17:09:08.791Z,3.74
2019-02-26T17:10:18.735Z,3.76
2019-02-26T17:11:28.714Z,3.7
2019-02-26T17:12:38.725Z,3.74
2019-02-26T17:13:48.981Z,3.74
2019-02-26T17:14:58.932Z,3.81
2019-02-26T17:16:08.624Z,3.78
2019-02-26T17:17:18.565Z,3.74
2019-02-26T17:18:28.508Z,3.7
2019-02-26T17:19:38.489Z,3.77
2019-02-26T17:20:48.447Z,3.78
2019-02-26T17:22:06.768Z,3.76
2019-02-26T17:23:18.853Z,3.82
2019-02-26T17:24:29.571Z,3.78
2019-02-26T17:25:39.628Z,3.76
2019-02-26T17:26:49.563Z,3.77
2019-02-26T17:27:59.529Z,3.77
2019-02-26T17:29:10.152Z,3.74
2019-02-26T17:30:28.327Z,3.78
2019-02-26T17:31:38.269Z,3.77
2019-02-26T17:32:48.215Z,3.78
2019-02-26T17:33:58.157Z,3.88
2019-02-26T17:35:08.098Z,3.81
2019-02-26T17:36:18.086Z,3.91
2019-02-26T17:37:28.025Z,3.84
2019-02-26T17:38:37.957Z,3.81
2019-02-26T17:39:47.896Z,3.77
2019-02-26T17:40:57.826Z,3.81
2019-02-26T17:42:07.865Z,3.85
2019-02-26T17:43:17.802Z,3.96
2019-02-26T17:44:30.063Z,3.88
2019-02-26T17:45:42.566Z,3.76
2019-02-26T17:46:52.509Z,3.78
2019-02-26T17:48:02.548Z,3.77
2019-02-26T17:49:12.487Z,3.66
2019-02-26T17:50:23.266Z,3.66
2019-02-26T17:51:33.206Z,3.77
2019-02-26T17:52:43.143Z,3.68
2019-02-26T17:53:53.190Z,3.76
2019-02-26T17:55:03.135Z,3.76
2019-02-26T17:56:17.682Z,3.76
2019-02-26T17:57:31.955Z,3.81
2019-02-26T17:58:49.429Z,3.76
2019-02-26T17:59:59.299Z,3.76
2019-02-26T18:01:11.064Z,3.74
2019-02-26T18:02:21.069Z,3.71
2019-02-26T18:03:34.995Z,3.77
2019-02-26T18:04:44.944Z,3.7
2019-02-26T18:05:56.445Z,3.61
2019-02-26T18:07:06.111Z,3.68
2019-02-26T18:08:21.225Z,3.56
2019-02-26T18:09:34.352Z,3.56
2019-02-26T18:10:44.514Z,3.46
2019-02-26T18:11:54.962Z,3.49
2019-02-26T18:13:09.649Z,3.4
2019-02-26T18:14:19.569Z,3.36
2019-02-26T18:15:29.497Z,3.4
2019-02-26T18:16:39.521Z,3.24
2019-02-26T18:17:49.442Z,3.31
2019-02-26T18:18:59.575Z,3.29
2019-02-26T18:20:09.556Z,3.16
2019-02-26T18:21:19.483Z,3.13
2019-02-26T18:22:29.452Z,3.12
2019-02-26T18:23:42.442Z,3.15
2019-02-26T18:24:52.364Z,3.13
2019-02-26T18:26:02.284Z,3.13
2019-02-26T18:27:12.206Z,3.06
2019-02-26T18:28:22.225Z,3.06
2019-02-26T18:29:32.151Z,3.01
2019-02-26T18:30:42.077Z,2.97
2019-02-26T18:31:52.025Z,2.97
2019-02-26T18:33:03.920Z,3
2019-02-26T18:34:16.126Z,2.93
2019-02-26T18:35:26.046Z,2.91
2019-02-26T18:36:35.983Z,2.97
2019-02-26T18:37:51.383Z,2.91
2019-02-26T18:39:01.300Z,2.93
2019-02-26T18:40:12.370Z,3.01
2019-02-26T18:41:22.296Z,2.98
2019-02-26T18:42:32.222Z,2.91
2019-02-26T18:43:49.770Z,2.98
2019-02-26T18:44:59.691Z,2.9
2019-02-26T18:46:09.714Z,2.98
2019-02-26T18:47:20.595Z,2.93
2019-02-26T18:48:30.642Z,2.9
2019-02-26T18:49:40.566Z,3
2019-02-26T18:50:50.233Z,2.98
2019-02-26T18:52:00.008Z,2.97
2019-02-26T18:53:16.264Z,2.95
2019-02-26T18:54:26.194Z,3.05
2019-02-26T18:55:37.157Z,2.95
2019-02-26T18:56:49.100Z,3.03
2019-02-26T18:57:59.369Z,3.05
2019-02-26T18:59:09.299Z,3.06
2019-02-26T19:00:19.218Z,3.08
2019-02-26T19:01:36.067Z,3.05
2019-02-26T19:02:47.029Z,3.13
2019-02-26T19:03:56.766Z,3.18
2019-02-26T19:05:06.683Z,3.21
2019-02-26T19:06:16.603Z,3.21
2019-02-26T19:07:26.524Z,3.18
2019-02-26T19:08:44.091Z,3.24
2019-02-26T19:09:53.754Z,3.24
2019-02-26T19:11:05.076Z,3.16
2019-02-26T19:12:15.003Z,3.34
2019-02-26T19:13:26.195Z,3.3
2019-02-26T19:14:44.458Z,3.29
2019-02-26T19:15:54.390Z,3.24
2019-02-26T19:17:04.305Z,3.33
2019-02-26T19:18:15.838Z,3.33
2019-02-26T19:19:25.770Z,3.3
2019-02-26T19:20:35.728Z,3.46
2019-02-26T19:21:45.752Z,3.41
2019-02-26T19:23:04.368Z,3.58
2019-02-26T19:24:14.056Z,3.67
2019-02-26T19:25:23.725Z,3.61
2019-02-26T19:26:33.646Z,3.73
2019-02-26T19:27:43.614Z,3.74
2019-02-26T19:28:53.541Z,3.81
2019-02-26T19:30:09.175Z,3.84
2019-02-26T19:31:19.097Z,3.77
2019-02-26T19:32:31.091Z,3.94
2019-02-26T19:33:42.564Z,4.03
2019-02-26T19:34:52.865Z,3.95
2019-02-26T19:36:06.007Z,3.92
2019-02-26T19:37:24.902Z,3.88
2019-02-26T19:38:34.825Z,3.91
2019-02-26T19:39:44.601Z,3.91
2019-02-26T19:40:54.522Z,3.91
2019-02-26T19:42:04.212Z,3.82
2019-02-26T19:43:14.134Z,3.84
2019-02-26T19:44:24.154Z,3.81
2019-02-26T19:45:35.467Z,3.73
2019-02-26T19:46:51.946Z,3.74
2019-02-26T19:48:01.868Z,3.68
2019-02-26T19:49:11.815Z,3.7
2019-02-26T19:50:21.858Z,3.67
2019-02-26T19:51:31.792Z,3.59
2019-02-26T19:52:42.682Z,3.41
2019-02-26T19:54:01.849Z,3.31
2019-02-26T19:55:17.896Z,3.18
2019-02-26T19:56:29.047Z,3.08
2019-02-26T19:57:38.978Z,3.08
2019-02-26T19:58:48.928Z,3.05
2019-02-26T20:00:00.736Z,2.94
2019-02-26T20:01:10.894Z,2.94
2019-02-26T20:02:20.819Z,2.88
2019-02-26T20:03:41.990Z,2.95
2019-02-26T20:04:51.935Z,2.77
2019-02-26T20:06:01.857Z,2.73
2019-02-26T20:07:11.886Z,2.79
2019-02-26T20:08:21.812Z,2.79
2019-02-26T20:09:31.740Z,2.72
2019-02-26T20:10:47.686Z,2.72
2019-02-26T20:12:03.017Z,2.61
2019-02-26T20:13:17.539Z,2.64
2019-02-26T20:14:27.460Z,2.72
2019-02-26T20:15:37.139Z,2.69
2019-02-26T20:16:49.064Z,2.77
2019-02-26T20:17:58.983Z,2.87
2019-02-26T20:19:08.915Z,2.93
2019-02-26T20:20:19.014Z,2.93
2019-02-26T20:21:28.938Z,2.85
2019-02-26T20:22:38.856Z,2.98
2019-02-26T20:23:48.778Z,3
2019-02-26T20:24:58.614Z,2.98
2019-02-26T20:26:08.536Z,3
2019-02-26T20:27:24.177Z,2.98
2019-02-26T20:28:37.713Z,2.95
2019-02-26T20:29:47.679Z,2.98
2019-02-26T20:30:57.698Z,2.98
2019-02-26T20:32:07.652Z,2.95
2019-02-26T20:33:17.325Z,2.97
2019-02-26T20:34:27.253Z,2.93
2019-02-26T20:35:37.176Z,3.06
2019-02-26T20:36:53.419Z,2.95
2019-02-26T20:38:04.107Z,3.01
2019-02-26T20:39:14.031Z,3.03
2019-02-26T20:40:24.535Z,3
2019-02-26T20:41:34.205Z,3.01
2019-02-26T20:42:44.120Z,3.05
2019-02-26T20:43:54.036Z,3.09
2019-02-26T20:45:04.065Z,3.08
2019-02-26T20:46:13.984Z,3.05
2019-02-26T20:47:23.901Z,3.06
2019-02-26T20:48:39.135Z,3.22
2019-02-26T20:49:51.670Z,3.16
2019-02-26T20:51:01.604Z,3.05
2019-02-26T20:52:11.530Z,3.05
2019-02-26T20:53:21.453Z,3.09
2019-02-26T20:54:32.812Z,2.97
2019-02-26T20:55:51.963Z,3.03
2019-02-26T20:57:08.686Z,2.98
2019-02-26T20:58:18.614Z,2.95
2019-02-26T20:59:28.635Z,2.94
2019-02-26T21:00:44.733Z,2.98
2019-02-26T21:01:55.938Z,2.91
2019-02-26T21:03:05.867Z,2.91
2019-02-26T21:04:15.799Z,2.94
2019-02-26T21:05:27.562Z,2.91
2019-02-26T21:06:39.130Z,2.88
2019-02-26T21:07:49.709Z,2.83
2019-02-26T21:09:07.712Z,2.87
2019-02-26T21:10:20.151Z,2.8
2019-02-26T21:11:30.179Z,2.77
2019-02-26T21:12:40.104Z,2.82
2019-02-26T21:13:50.080Z,2.82
2019-02-26T21:14:59.756Z,2.76
2019-02-26T21:16:11.434Z,2.72
2019-02-26T21:17:28.074Z,2.83
2019-02-26T21:18:39.370Z,2.87
2019-02-26T21:19:49.354Z,2.88
2019-02-26T21:20:59.285Z,3
2019-02-26T21:22:09.308Z,3.01
2019-02-26T21:23:19.241Z,3
2019-02-26T21:24:36.797Z,3.08
2019-02-26T21:25:50.333Z,3.12
2019-02-26T21:27:00.315Z,3.16
2019-02-26T21:28:10.253Z,3.18
2019-02-26T21:29:19.937Z,3.19
2019-02-26T21:30:29.859Z,3.24
2019-02-26T21:31:39.800Z,3.18
2019-02-26T21:32:49.818Z,3.18
2019-02-26T21:34:06.221Z,3.24
2019-02-26T21:35:19.813Z,3.26
2019-02-26T21:36:32.689Z,3.26
2019-02-26T21:37:42.612Z,3.26
2019-02-26T21:38:53.588Z,3.26
2019-02-26T21:40:03.519Z,3.24
2019-02-26T21:41:14.801Z,3.26
2019-02-26T21:42:31.392Z,3.27
2019-02-26T21:43:41.418Z,3.33
2019-02-26T21:44:51.339Z,3.22
2019-02-26T21:46:01.264Z,3.33
2019-02-26T21:47:11.188Z,3.46
2019-02-26T21:48:21.113Z,3.36
2019-02-26T21:49:31.137Z,3.48
2019-02-26T21:50:41.056Z,3.46
2019-02-26T21:51:50.727Z,3.4
2019-02-26T21:53:04.508Z,3.41
2019-02-26T21:54:14.438Z,3.43
2019-02-26T21:55:24.430Z,3.52
2019-02-26T21:56:41.720Z,3.55
2019-02-26T21:57:57.102Z,3.59
2019-02-26T21:59:07.028Z,3.63
2019-02-26T22:00:16.706Z,3.74
2019-02-26T22:01:28.038Z,4.06
2019-02-26T22:02:37.962Z,4.5
2019-02-26T22:03:51.192Z,4.79
2019-02-26T22:05:10.607Z,5.16
2019-02-26T22:06:20.582Z,5.23
2019-02-26T22:07:30.502Z,5.44
2019-02-26T22:08:41.085Z,5.56
2019-02-26T22:09:51.201Z,5.83
2019-02-26T22:11:01.124Z,5.87
2019-02-26T22:12:11.164Z,5.97
2019-02-26T22:13:22.512Z,5.97
2019-02-26T22:14:41.415Z,5.83
2019-02-26T22:15:51.337Z,5.9
2019-02-26T22:17:01.936Z,5.81
2019-02-26T22:18:11.959Z,5.81
2019-02-26T22:19:21.628Z,5.72
2019-02-26T22:20:40.853Z,5.73
2019-02-26T22:21:54.437Z,5.76
2019-02-26T22:23:05.772Z,5.81
2019-02-26T22:24:15.745Z,5.79
2019-02-26T22:25:25.674Z,5.8
2019-02-26T22:26:36.944Z,5.81
2019-02-26T22:27:47.502Z,5.77
2019-02-26T22:28:57.930Z,5.77
2019-02-26T22:30:07.883Z,5.79
2019-02-26T22:31:17.865Z,5.69
2019-02-26T22:32:27.792Z,5.77
2019-02-26T22:33:40.690Z,5.72
2019-02-26T22:34:58.204Z,5.72
2019-02-26T22:36:08.147Z,5.62
2019-02-26T22:37:18.069Z,5.69
2019-02-26T22:38:27.993Z,5.58
2019-02-26T22:39:37.912Z,5.38
2019-02-26T22:40:47.939Z,5.31
2019-02-26T22:41:57.857Z,5.22
2019-02-26T22:43:07.774Z,5.19
2019-02-26T22:44:26.047Z,5.05
2019-02-26T22:45:35.984Z,5.07
2019-02-26T22:46:46.016Z,4.94
2019-02-26T22:47:55.940Z,4.86
2019-02-26T22:49:05.860Z,4.76
2019-02-26T22:50:15.781Z,4.7
2019-02-26T22:51:25.763Z,4.46
2019-02-26T22:52:36.113Z,4.43
2019-02-26T22:53:46.038Z,4.34
2019-02-26T22:54:55.959Z,4.27
2019-02-26T22:56:05.880Z,4.43
2019-02-26T22:57:15.812Z,4.63
2019-02-26T22:58:26.624Z,4.84
2019-02-26T22:59:45.575Z,5.15
2019-02-26T23:00:55.518Z,5.28
2019-02-26T23:02:08.498Z,5.4
2019-02-26T23:03:18.570Z,5.55
2019-02-26T23:04:28.599Z,5.64
2019-02-26T23:05:38.521Z,5.74
2019-02-26T23:06:48.438Z,5.88
2019-02-26T23:07:58.357Z,5.99
2019-02-26T23:09:08.383Z,6.12
2019-02-26T23:10:18.311Z,6.34
2019-02-26T23:11:36.573Z,6.43
2019-02-26T23:12:46.501Z,6.68
2019-02-26T23:13:56.422Z,6.56
2019-02-26T23:15:14.142Z,6.59
2019-02-26T23:16:24.077Z,6.72
2019-02-26T23:17:33.997Z,6.72
2019-02-26T23:18:43.923Z,6.53
2019-02-26T23:19:53.595Z,6.6
2019-02-26T23:21:03.618Z,6.64
2019-02-26T23:22:13.556Z,6.68
2019-02-26T23:23:26.599Z,6.68
2019-02-26T23:24:36.532Z,6.57
2019-02-26T23:25:46.461Z,6.6
2019-02-26T23:26:56.486Z,6.65
2019-02-26T23:28:06.417Z,6.65
2019-02-26T23:29:16.095Z,6.64
2019-02-26T23:30:29.410Z,6.64
2019-02-26T23:31:39.079Z,6.68
2019-02-26T23:32:49.109Z,6.64
2019-02-26T23:33:59.031Z,6.67
2019-02-26T23:35:11.200Z,6.67
2019-02-26T23:36:21.145Z,6.68
2019-02-26T23:37:39.237Z,6.62
2019-02-26T23:38:49.556Z,6.74
2019-02-26T23:39:59.480Z,6.59
2019-02-26T23:41:09.418Z,6.57
2019-02-26T23:42:19.338Z,6.65
2019-02-26T23:43:29.257Z,6.49
2019-02-26T23:44:39.229Z,6.64
2019-02-26T23:45:49.154Z,6.64
2019-02-26T23:47:06.500Z,6.59
2019-02-26T23:48:16.431Z,6.71
2019-02-26T23:49:26.353Z,6.64
2019-02-26T23:50:36.370Z,6.65